createdAt,value
2022-12-29T06:17:32.574Z,10.81
2022-12-29T06:27:32.446Z,10.32
2022-12-29T06:37:32.541Z,10.31
2022-12-29T06:47:32.533Z,9.99
2022-12-29T06:57:32.705Z,10.04
2022-12-29T07:07:32.786Z,10.49
2022-12-29T07:17:32.632Z,10.65
2022-12-29T07:27:32.734Z,11.01
2022-12-29T07:37:32.683Z,10.80
2022-12-29T07:47:32.591Z,8.34
2022-12-29T07:57:33.627Z,8.34
2022-12-29T08:07:32.680Z,8.72
2022-12-29T08:17:32.715Z,8.57
2022-12-29T08:27:32.776Z,8.49
2022-12-29T08:37:32.942Z,8.68
2022-12-29T08:47:32.958Z,9.51
2022-12-29T08:57:32.932Z,9.89
2022-12-29T09:07:33.105Z,9.76
2022-12-29T09:17:32.990Z,9.39
2022-12-29T09:27:32.978Z,9.52
2022-12-29T09:37:33.274Z,9.69
2022-12-29T09:47:33.093Z,10.18
2022-12-29T09:57:32.941Z,9.92
2022-12-29T10:07:33.328Z,9.95
2022-12-29T10:17:32.964Z,9.24
2022-12-29T10:27:33.049Z,9.23
2022-12-29T10:37:34.176Z,9.27
2022-12-29T10:47:32.978Z,9.74
2022-12-29T10:57:33.211Z,10.13
2022-12-29T11:07:33.357Z,10.53
2022-12-29T11:17:33.176Z,10.33
2022-12-29T11:27:33.320Z,10.56
2022-12-29T11:37:33.063Z,10.58
2022-12-29T11:47:33.277Z,10.80
2022-12-29T11:57:33.236Z,11.19
2022-12-29T12:07:33.218Z,11.39
2022-12-29T12:17:33.288Z,11.47
2022-12-29T12:27:33.232Z,11.30
2022-12-29T12:37:33.149Z,11.33
2022-12-29T12:47:33.126Z,11.20
2022-12-29T12:57:33.204Z,11.01
2022-12-29T13:07:33.177Z,10.94
2022-12-29T13:17:33.243Z,10.92
2022-12-29T13:27:37.351Z,10.96
2022-12-29T13:37:33.284Z,10.95
2022-12-29T13:47:33.554Z,10.94
2022-12-29T13:57:33.366Z,10.95
2022-12-29T14:07:33.196Z,11.06
2022-12-29T14:17:33.349Z,10.92
2022-12-29T14:27:33.210Z,10.88
2022-12-29T14:37:34.314Z,10.78
2022-12-29T14:47:34.363Z,10.81
2022-12-29T14:57:33.295Z,10.67
2022-12-29T15:07:33.398Z,10.56
2022-12-29T15:17:33.222Z,10.47
2022-12-29T15:27:33.244Z,10.46
2022-12-29T15:37:33.353Z,10.58
2022-12-29T15:47:33.210Z,10.30
2022-12-29T15:57:33.290Z,10.02
2022-12-29T16:07:39.119Z,9.84
2022-12-29T16:17:33.312Z,9.66
2022-12-29T16:27:33.492Z,9.76
2022-12-29T16:37:33.285Z,9.50
2022-12-29T16:47:33.255Z,9.38
2022-12-29T16:57:33.303Z,9.17
2022-12-29T17:07:33.227Z,9.03
2022-12-29T17:17:33.533Z,8.90
2022-12-29T17:27:33.353Z,8.99
2022-12-29T17:37:33.369Z,9.16
2022-12-29T17:47:33.236Z,9.23
2022-12-29T17:57:33.308Z,9.23
2022-12-29T18:07:36.044Z,8.96
2022-12-29T18:17:33.314Z,8.78
2022-12-29T18:27:33.233Z,8.85
2022-12-29T18:37:33.281Z,9.02
2022-12-29T18:47:33.462Z,8.65
2022-12-29T18:57:33.234Z,7.44
2022-12-29T19:07:33.286Z,7.43
2022-12-29T19:17:33.302Z,7.56
